createdAt,value
2023-01-27T00:00:35.217Z,2.75
2023-01-27T00:03:02.032Z,1.92
2023-01-27T00:05:28.726Z,2.47
2023-01-27T00:07:58.479Z,1.60
2023-01-27T00:10:26.583Z,2.67
2023-01-27T00:13:12.477Z,2.33
2023-01-27T00:15:40.188Z,2.45
2023-01-27T00:18:07.312Z,1.55
2023-01-27T00:20:52.987Z,2.00
2023-01-27T00:23:43.951Z,1.10
2023-01-27T00:26:13.218Z,1.27
2023-01-27T00:28:43.189Z,1.98
2023-01-27T00:31:30.600Z,1.73
2023-01-27T00:34:01.971Z,1.83
2023-01-27T00:36:29.725Z,1.90
2023-01-27T00:38:57.016Z,1.75
2023-01-27T00:41:23.858Z,2.03
2023-01-27T00:43:52.920Z,1.60
2023-01-27T00:46:21.247Z,1.50
2023-01-27T00:48:48.431Z,2.00
2023-01-27T00:51:15.307Z,1.98
2023-01-27T00:53:42.317Z,1.20
2023-01-27T00:56:10.255Z,1.35
2023-01-27T00:58:37.245Z,1.63
2023-01-27T01:01:06.469Z,1.50
2023-01-27T01:03:34.846Z,1.10
2023-01-27T01:06:03.944Z,1.48
2023-01-27T01:08:31.745Z,2.53
2023-01-27T01:10:58.969Z,1.75
2023-01-27T01:13:27.755Z,1.73
2023-01-27T01:15:55.723Z,1.23
2023-01-27T01:18:22.831Z,1.92
2023-01-27T01:20:49.753Z,1.30
2023-01-27T01:23:16.556Z,2.53
2023-01-27T01:25:43.488Z,1.42
2023-01-27T01:28:11.877Z,1.83
2023-01-27T01:30:38.720Z,2.17
2023-01-27T01:33:05.931Z,1.58
2023-01-27T01:35:37.757Z,1.55
2023-01-27T01:38:04.597Z,1.45
2023-01-27T01:40:32.181Z,2.55
2023-01-27T01:43:04.018Z,1.95
2023-01-27T01:45:33.957Z,2.40
2023-01-27T01:48:44.475Z,1.40
2023-01-27T01:54:02.316Z,2.42
2023-01-27T01:56:44.960Z,1.60
2023-01-27T01:59:23.995Z,1.95
2023-01-27T02:01:55.915Z,1.92
2023-01-27T02:07:00.750Z,2.70
2023-01-27T02:09:28.765Z,2.28
2023-01-27T02:11:55.882Z,1.35
2023-01-27T02:14:22.674Z,2.38
2023-01-27T02:16:49.583Z,1.98
2023-01-27T02:19:25.781Z,2.15
2023-01-27T02:21:53.941Z,1.35
2023-01-27T02:24:21.612Z,1.42
2023-01-27T02:26:49.291Z,2.17
2023-01-27T02:29:16.395Z,2.05
2023-01-27T02:31:43.431Z,2.67
2023-01-27T02:34:18.306Z,2.75
2023-01-27T02:36:54.379Z,2.83
2023-01-27T02:39:23.308Z,2.65
2023-01-27T02:41:53.069Z,2.03
2023-01-27T02:44:20.701Z,4.55
2023-01-27T02:46:48.739Z,3.45
2023-01-27T02:49:15.775Z,2.97
2023-01-27T02:51:42.721Z,1.77
2023-01-27T02:54:10.436Z,2.80
2023-01-27T02:56:37.201Z,2.80
2023-01-27T02:59:04.066Z,2.67
2023-01-27T03:01:36.165Z,1.83
2023-01-27T03:04:03.346Z,2.53
2023-01-27T03:06:30.109Z,2.10
2023-01-27T03:08:57.130Z,1.48
2023-01-27T03:11:42.395Z,1.30
2023-01-27T03:14:09.598Z,2.38
2023-01-27T03:16:55.285Z,2.60
2023-01-27T03:19:22.295Z,2.40
2023-01-27T03:21:52.806Z,2.20
2023-01-27T03:24:21.319Z,2.22
2023-01-27T03:26:49.309Z,2.47
2023-01-27T03:29:37.313Z,2.03
2023-01-27T03:32:05.933Z,1.77
2023-01-27T03:34:33.502Z,2.38
2023-01-27T03:37:24.374Z,2.42
2023-01-27T03:40:09.968Z,2.05
2023-01-27T03:42:55.292Z,2.35
2023-01-27T03:45:40.684Z,2.10
2023-01-27T03:48:07.537Z,2.83
2023-01-27T03:50:43.351Z,2.85
2023-01-27T03:53:11.245Z,2.38
2023-01-27T03:55:39.061Z,2.33
2023-01-27T03:58:20.839Z,2.58
2023-01-27T04:00:51.034Z,2.78
2023-01-27T04:03:36.740Z,1.65
2023-01-27T04:06:30.090Z,1.40
2023-01-27T04:08:57.496Z,2.83
2023-01-27T04:11:42.911Z,1.20
2023-01-27T04:14:10.449Z,2.53
2023-01-27T04:16:37.239Z,2.55
2023-01-27T04:19:06.278Z,2.05
2023-01-27T04:21:33.747Z,2.60
2023-01-27T04:24:00.971Z,2.63
2023-01-27T04:26:33.366Z,2.42
2023-01-27T04:29:02.148Z,1.85
2023-01-27T04:31:29.164Z,2.55
2023-01-27T04:33:56.326Z,2.38
2023-01-27T04:36:23.150Z,2.30
2023-01-27T04:38:50.019Z,2.45
2023-01-27T04:41:16.789Z,2.40
2023-01-27T04:43:43.646Z,1.80
2023-01-27T04:46:10.497Z,1.65
2023-01-27T04:48:37.259Z,1.98
2023-01-27T04:51:04.070Z,2.17
2023-01-27T04:53:30.820Z,1.20
2023-01-27T04:56:05.932Z,2.03
2023-01-27T04:58:33.326Z,1.15
2023-01-27T05:01:00.050Z,1.60
2023-01-27T05:03:26.826Z,1.60
2023-01-27T05:05:53.549Z,2.00
2023-01-27T05:08:20.379Z,1.52
2023-01-27T05:10:47.144Z,1.50
2023-01-27T05:13:14.129Z,2.13
2023-01-27T05:15:40.918Z,1.45
2023-01-27T05:18:07.733Z,1.95
2023-01-27T05:20:34.522Z,1.67
2023-01-27T05:23:19.789Z,1.20
2023-01-27T05:25:46.716Z,1.20
2023-01-27T05:28:13.480Z,1.40
2023-01-27T05:30:40.313Z,1.02
2023-01-27T05:33:08.489Z,0.70
2023-01-27T05:35:35.439Z,1.65
2023-01-27T05:38:02.208Z,1.00
2023-01-27T05:40:29.959Z,2.78
2023-01-27T05:42:56.715Z,1.70
2023-01-27T05:45:23.526Z,1.42
2023-01-27T05:47:51.469Z,1.63
2023-01-27T05:50:18.784Z,1.60
2023-01-27T05:52:45.783Z,1.88
2023-01-27T05:55:12.949Z,1.52
2023-01-27T05:57:39.872Z,1.65
2023-01-27T06:00:07.323Z,1.65
2023-01-27T06:02:35.053Z,1.65
2023-01-27T06:05:01.871Z,1.92
2023-01-27T06:07:28.676Z,1.92
2023-01-27T06:09:55.493Z,1.60
2023-01-27T06:12:22.250Z,1.98
2023-01-27T06:14:49.061Z,0.93
2023-01-27T06:17:15.748Z,1.25
2023-01-27T06:19:42.542Z,2.15
2023-01-27T06:22:09.418Z,2.10
2023-01-27T06:24:36.264Z,2.25
2023-01-27T06:27:03.093Z,2.30
2023-01-27T06:29:29.933Z,2.20
2023-01-27T06:31:57.788Z,2.15
2023-01-27T06:34:24.741Z,1.88
2023-01-27T06:36:53.967Z,1.58
2023-01-27T06:39:20.919Z,1.77
2023-01-27T06:41:49.775Z,2.28
2023-01-27T06:44:16.645Z,2.22
2023-01-27T06:46:43.441Z,1.98
2023-01-27T06:49:10.409Z,1.85
2023-01-27T06:51:37.111Z,1.60
2023-01-27T06:54:04.833Z,2.00
2023-01-27T06:56:31.579Z,1.80
2023-01-27T06:58:58.405Z,2.17
2023-01-27T07:01:25.200Z,2.08
2023-01-27T07:03:53.092Z,2.22
2023-01-27T07:06:20.570Z,2.63
2023-01-27T07:08:47.626Z,2.95
2023-01-27T07:11:14.667Z,2.88
2023-01-27T07:13:41.475Z,3.17
2023-01-27T07:16:08.276Z,2.15
2023-01-27T07:18:35.146Z,2.22
2023-01-27T07:21:05.068Z,3.60
2023-01-27T07:23:31.925Z,3.67
2023-01-27T07:26:02.975Z,3.03
2023-01-27T07:28:31.099Z,2.65
2023-01-27T07:31:01.558Z,2.88
2023-01-27T07:33:28.789Z,3.08
2023-01-27T07:35:55.594Z,2.78
2023-01-27T07:38:22.735Z,3.17
2023-01-27T07:40:49.512Z,3.50
2023-01-27T07:43:16.389Z,2.67
2023-01-27T07:45:43.911Z,3.65
2023-01-27T07:48:12.561Z,3.17
2023-01-27T07:50:41.687Z,2.90
2023-01-27T07:53:09.193Z,2.72
2023-01-27T07:55:35.889Z,3.45
2023-01-27T07:58:02.842Z,2.28
2023-01-27T08:00:30.309Z,2.20
2023-01-27T08:02:58.654Z,1.45
2023-01-27T08:05:25.945Z,1.45
2023-01-27T08:07:54.325Z,2.58
2023-01-27T08:10:21.275Z,2.55
2023-01-27T08:12:48.357Z,2.15
2023-01-27T08:15:18.702Z,2.40
2023-01-27T08:17:53.506Z,2.22
2023-01-27T08:20:20.268Z,2.53
2023-01-27T08:22:47.018Z,1.58
2023-01-27T08:25:13.851Z,1.70
2023-01-27T08:27:40.598Z,1.73
2023-01-27T08:30:08.161Z,1.90
2023-01-27T08:32:35.679Z,1.40
2023-01-27T08:35:02.596Z,1.63
2023-01-27T08:37:29.323Z,1.75
2023-01-27T08:39:56.100Z,1.80
2023-01-27T08:42:23.058Z,1.55
2023-01-27T08:44:49.882Z,1.10
2023-01-27T08:47:16.606Z,1.20
2023-01-27T08:49:43.411Z,0.80
2023-01-27T08:52:10.161Z,1.40
2023-01-27T08:54:36.974Z,2.03
2023-01-27T08:57:03.853Z,1.00
2023-01-27T08:59:30.831Z,1.77
2023-01-27T09:01:57.554Z,1.20
2023-01-27T09:04:24.427Z,1.10
2023-01-27T09:06:51.841Z,0.88
2023-01-27T09:09:18.653Z,1.20
2023-01-27T09:11:45.670Z,1.20
2023-01-27T09:14:12.626Z,1.10
2023-01-27T09:16:39.520Z,1.27
2023-01-27T09:19:06.389Z,0.80
2023-01-27T09:21:33.298Z,0.95
2023-01-27T09:24:00.237Z,1.48
2023-01-27T09:26:27.041Z,1.50
2023-01-27T09:28:53.859Z,1.15
2023-01-27T09:31:20.795Z,1.50
2023-01-27T09:33:47.670Z,1.38
2023-01-27T09:36:19.218Z,1.33
2023-01-27T09:38:49.602Z,1.60
2023-01-27T09:41:34.885Z,1.50
2023-01-27T09:44:04.665Z,1.77
2023-01-27T09:46:37.203Z,1.63
2023-01-27T09:49:25.832Z,1.52
2023-01-27T09:51:55.260Z,1.40
2023-01-27T09:54:43.054Z,1.77
2023-01-27T09:57:18.482Z,1.00
2023-01-27T09:59:51.727Z,1.40
2023-01-27T10:02:43.383Z,1.20
2023-01-27T10:05:10.122Z,1.50
2023-01-27T10:07:36.866Z,1.48
2023-01-27T10:10:09.989Z,1.17
2023-01-27T10:13:06.205Z,0.85
2023-01-27T10:15:43.806Z,1.10
2023-01-27T10:18:31.797Z,0.85
2023-01-27T10:21:17.799Z,0.95
2023-01-27T10:24:02.716Z,1.00
2023-01-27T10:26:46.087Z,1.55
2023-01-27T10:29:15.729Z,1.23
2023-01-27T10:32:08.374Z,1.48
2023-01-27T10:34:37.462Z,1.58
2023-01-27T10:37:36.156Z,1.30
2023-01-27T10:40:11.879Z,1.00
2023-01-27T10:43:14.274Z,0.82
2023-01-27T10:45:55.575Z,1.05
2023-01-27T10:48:43.751Z,0.75
2023-01-27T10:51:12.255Z,0.90
2023-01-27T10:54:10.085Z,1.10
2023-01-27T10:56:59.910Z,0.77
2023-01-27T10:59:31.575Z,1.10
2023-01-27T11:02:39.181Z,0.82
2023-01-27T11:05:09.866Z,0.63
2023-01-27T11:07:46.752Z,0.70
2023-01-27T11:10:21.529Z,0.82
2023-01-27T11:12:51.951Z,1.08
2023-01-27T11:15:19.064Z,1.13
2023-01-27T11:17:50.739Z,1.27
2023-01-27T11:20:26.620Z,1.10
2023-01-27T11:23:11.960Z,1.00
2023-01-27T11:25:55.230Z,1.33
2023-01-27T11:28:40.371Z,2.03
2023-01-27T11:31:29.755Z,0.82
2023-01-27T11:34:16.246Z,0.88
2023-01-27T11:36:43.073Z,1.20
2023-01-27T11:39:10.592Z,1.27
2023-01-27T11:41:39.951Z,1.23
2023-01-27T11:44:12.850Z,1.42
2023-01-27T11:46:39.808Z,1.30
2023-01-27T11:49:07.631Z,1.20
2023-01-27T11:51:38.956Z,1.23
2023-01-27T11:54:16.287Z,1.20
2023-01-27T11:56:47.749Z,1.20
2023-01-27T11:59:24.510Z,1.10
2023-01-27T12:02:11.683Z,1.33
2023-01-27T12:04:38.392Z,1.13
2023-01-27T12:07:27.404Z,1.17
2023-01-27T12:09:54.389Z,1.30
2023-01-27T12:12:26.208Z,1.08
2023-01-27T12:14:54.903Z,1.10
2023-01-27T12:17:32.867Z,0.85
2023-01-27T12:20:03.856Z,1.10
2023-01-27T12:25:04.380Z,1.20
2023-01-27T12:27:41.230Z,1.70
2023-01-27T12:30:20.117Z,1.50
2023-01-27T12:32:48.039Z,1.13
2023-01-27T12:35:33.337Z,1.23
2023-01-27T12:38:03.822Z,0.98
2023-01-27T12:40:32.853Z,1.88
2023-01-27T12:43:02.447Z,1.60
2023-01-27T12:45:31.636Z,1.20
2023-01-27T12:48:20.012Z,1.08
2023-01-27T12:50:49.905Z,1.08
2023-01-27T12:53:21.355Z,0.90
2023-01-27T12:55:57.399Z,0.70
2023-01-27T12:58:36.451Z,1.33
2023-01-27T13:01:06.686Z,0.68
2023-01-27T13:03:39.435Z,0.90
2023-01-27T13:06:07.369Z,1.15
2023-01-27T13:08:34.536Z,1.83
2023-01-27T13:11:04.150Z,1.67
2023-01-27T13:13:31.151Z,1.38
2023-01-27T13:16:17.876Z,1.60
2023-01-27T13:18:57.108Z,1.10
2023-01-27T13:21:32.669Z,1.00
2023-01-27T13:24:00.528Z,0.68
2023-01-27T13:26:29.935Z,0.90
2023-01-27T13:29:11.309Z,0.80
2023-01-27T13:31:46.863Z,0.63
2023-01-27T13:34:25.150Z,0.63
2023-01-27T13:37:15.053Z,1.13
2023-01-27T13:40:03.302Z,0.70
2023-01-27T13:42:41.415Z,0.80
2023-01-27T13:45:15.209Z,0.88
2023-01-27T13:47:59.895Z,1.00
2023-01-27T13:50:32.898Z,0.70
2023-01-27T13:53:00.456Z,0.60
2023-01-27T13:56:04.017Z,1.35
2023-01-27T13:58:37.026Z,1.40
2023-01-27T14:01:06.876Z,0.95
2023-01-27T14:03:45.794Z,1.10
2023-01-27T14:06:27.815Z,0.60
2023-01-27T14:09:03.243Z,0.70
2023-01-27T14:11:43.102Z,0.80
2023-01-27T14:14:25.909Z,0.98
2023-01-27T14:17:26.558Z,1.17
2023-01-27T14:20:05.583Z,0.90
2023-01-27T14:22:51.555Z,1.00
2023-01-27T14:25:39.921Z,1.15
2023-01-27T14:28:21.616Z,1.17
2023-01-27T14:30:57.997Z,1.27
2023-01-27T14:33:54.008Z,1.25
2023-01-27T14:36:24.981Z,1.20
2023-01-27T14:41:46.684Z,1.20
2023-01-27T14:44:23.811Z,1.67
2023-01-27T14:47:01.683Z,1.63
2023-01-27T14:49:56.753Z,1.05
2023-01-27T14:52:45.176Z,1.33
2023-01-27T14:55:18.254Z,1.30
2023-01-27T14:57:57.939Z,1.50
2023-01-27T15:00:31.201Z,1.70
2023-01-27T15:03:40.125Z,1.30
2023-01-27T15:06:19.518Z,1.20
2023-01-27T15:09:03.763Z,1.38
2023-01-27T15:11:45.817Z,1.15
2023-01-27T15:14:18.592Z,1.63
2023-01-27T15:16:45.949Z,1.00
2023-01-27T15:19:18.713Z,1.42
2023-01-27T15:22:10.054Z,1.65
2023-01-27T15:25:18.316Z,1.45
2023-01-27T15:27:47.229Z,1.40
2023-01-27T15:30:31.946Z,1.38
2023-01-27T15:32:58.941Z,1.38
2023-01-27T15:35:26.390Z,1.85
2023-01-27T15:38:00.803Z,1.70
2023-01-27T15:40:28.149Z,1.20
2023-01-27T15:42:57.974Z,1.33
2023-01-27T15:45:54.793Z,1.50
2023-01-27T15:48:30.175Z,1.50
2023-01-27T15:51:04.893Z,1.55
2023-01-27T15:53:34.687Z,1.58
2023-01-27T15:56:02.437Z,1.55
2023-01-27T15:58:35.682Z,1.45
2023-01-27T16:01:04.760Z,1.42
2023-01-27T16:03:43.749Z,1.60
2023-01-27T16:06:16.287Z,1.45
2023-01-27T16:08:47.543Z,1.25
2023-01-27T16:11:26.604Z,1.10
2023-01-27T16:14:13.780Z,1.10
2023-01-27T16:16:42.053Z,1.83
2023-01-27T16:19:11.849Z,2.03
2023-01-27T16:21:44.763Z,2.33
2023-01-27T16:24:20.162Z,2.10
2023-01-27T16:26:52.489Z,2.50
2023-01-27T16:29:26.191Z,2.85
2023-01-27T16:31:58.794Z,2.88
2023-01-27T16:34:44.688Z,2.92
2023-01-27T16:37:18.644Z,2.80
2023-01-27T16:39:55.135Z,1.92
2023-01-27T16:42:31.823Z,3.33
2023-01-27T16:45:01.820Z,2.47
2023-01-27T16:47:37.916Z,2.15
2023-01-27T16:50:05.359Z,3.08
2023-01-27T16:52:41.888Z,3.83
2023-01-27T16:55:20.320Z,3.42
2023-01-27T16:57:47.372Z,3.72
2023-01-27T17:00:29.257Z,4.95
2023-01-27T17:02:59.455Z,5.18
2023-01-27T17:05:26.853Z,4.05
2023-01-27T17:08:17.476Z,3.50
2023-01-27T17:10:50.135Z,4.22
2023-01-27T17:13:32.305Z,4.03
2023-01-27T17:16:01.043Z,4.13
2023-01-27T17:18:30.068Z,2.55
2023-01-27T17:20:58.447Z,8.00
2023-01-27T17:23:33.210Z,7.75
2023-01-27T17:26:12.732Z,4.05
2023-01-27T17:28:39.684Z,4.85
2023-01-27T17:31:08.339Z,4.35
2023-01-27T17:33:36.627Z,4.45
2023-01-27T17:36:10.048Z,7.70
2023-01-27T17:38:48.859Z,7.53
2023-01-27T17:41:27.401Z,6.57
2023-01-27T17:43:57.543Z,7.75
2023-01-27T17:46:26.107Z,6.60
2023-01-27T17:49:00.847Z,5.82
2023-01-27T17:51:34.204Z,5.32
2023-01-27T17:54:02.090Z,4.78
2023-01-27T17:56:33.323Z,4.10
2023-01-27T17:59:07.543Z,3.03
2023-01-27T18:01:34.723Z,3.45
2023-01-27T18:04:02.977Z,4.28
2023-01-27T18:06:29.834Z,4.70
2023-01-27T18:08:59.531Z,5.03
2023-01-27T18:11:31.318Z,4.40
2023-01-27T18:14:01.743Z,3.92
2023-01-27T18:16:29.939Z,3.63
2023-01-27T18:19:08.964Z,5.20
2023-01-27T18:21:36.710Z,3.17
2023-01-27T18:24:17.471Z,4.78
2023-01-27T18:26:44.429Z,6.07
2023-01-27T18:29:24.000Z,6.07
2023-01-27T18:31:56.362Z,6.10
2023-01-27T18:34:31.814Z,4.97
2023-01-27T18:37:02.616Z,10.23
2023-01-27T18:42:00.204Z,13.63
2023-01-27T18:44:34.223Z,11.18
2023-01-27T18:47:19.329Z,9.10
2023-01-27T18:49:55.275Z,8.88
2023-01-27T18:52:22.110Z,9.50
2023-01-27T18:54:48.904Z,9.18
2023-01-27T18:57:15.692Z,9.95
2023-01-27T18:59:42.511Z,9.20
2023-01-27T19:02:15.817Z,11.23
2023-01-27T19:04:43.276Z,7.78
2023-01-27T19:07:17.349Z,11.40
2023-01-27T19:09:45.251Z,9.48
2023-01-27T19:12:12.462Z,7.90
2023-01-27T19:14:41.941Z,7.60
2023-01-27T19:17:27.447Z,7.15
2023-01-27T19:19:55.085Z,5.80
2023-01-27T19:22:21.842Z,5.88
2023-01-27T19:24:50.553Z,3.45
2023-01-27T19:27:18.341Z,5.28
2023-01-27T19:29:45.245Z,3.80
2023-01-27T19:32:14.589Z,2.60
2023-01-27T19:34:41.874Z,6.13
2023-01-27T19:37:18.594Z,3.35
2023-01-27T19:39:46.587Z,6.10
2023-01-27T19:42:15.020Z,3.28
2023-01-27T19:44:42.151Z,4.25
2023-01-27T19:47:12.850Z,4.63
2023-01-27T19:49:40.162Z,3.90
2023-01-27T19:52:07.052Z,6.85
2023-01-27T19:54:34.683Z,4.50
2023-01-27T19:57:01.527Z,5.70
2023-01-27T19:59:28.613Z,4.90
2023-01-27T20:01:57.189Z,4.53
2023-01-27T20:04:24.111Z,3.55
2023-01-27T20:06:50.954Z,4.88
2023-01-27T20:09:17.794Z,4.07
2023-01-27T20:11:44.858Z,3.83
2023-01-27T20:14:13.680Z,5.28
2023-01-27T20:16:41.067Z,9.38
2023-01-27T20:19:08.001Z,9.48
2023-01-27T20:21:34.877Z,5.18
2023-01-27T20:24:02.403Z,4.45
2023-01-27T20:26:31.369Z,3.10
2023-01-27T20:28:58.300Z,3.80
2023-01-27T20:31:25.204Z,4.47
2023-01-27T20:33:52.436Z,4.25
2023-01-27T20:36:21.182Z,4.10
2023-01-27T20:38:48.108Z,3.13
2023-01-27T20:41:17.613Z,3.47
2023-01-27T20:43:44.594Z,5.10
2023-01-27T20:46:16.898Z,3.80
2023-01-27T20:48:43.815Z,3.50
2023-01-27T20:51:13.205Z,3.85
2023-01-27T20:53:45.276Z,7.00
2023-01-27T20:56:17.346Z,5.25
2023-01-27T20:58:44.809Z,5.20
2023-01-27T21:01:17.188Z,5.40
2023-01-27T21:03:44.125Z,3.97
2023-01-27T21:06:13.007Z,5.15
2023-01-27T21:08:40.003Z,4.32
2023-01-27T21:11:10.759Z,2.55
2023-01-27T21:13:37.807Z,4.78
2023-01-27T21:16:04.828Z,4.55
2023-01-27T21:18:31.837Z,4.20
2023-01-27T21:21:04.020Z,4.18
2023-01-27T21:23:33.127Z,3.95
2023-01-27T21:26:10.412Z,5.93
2023-01-27T21:28:37.218Z,4.18
2023-01-27T21:31:07.985Z,5.95
2023-01-27T21:36:08.076Z,4.67
2023-01-27T21:38:36.160Z,3.30
2023-01-27T21:41:11.846Z,4.38
2023-01-27T21:43:57.314Z,4.05
2023-01-27T21:46:24.237Z,3.33
2023-01-27T21:48:51.164Z,4.10
2023-01-27T21:51:17.915Z,4.03
2023-01-27T21:53:44.727Z,2.80
2023-01-27T21:56:11.902Z,3.60
2023-01-27T21:58:39.080Z,3.83
2023-01-27T22:01:10.008Z,4.13
2023-01-27T22:03:37.762Z,2.85
2023-01-27T22:06:08.806Z,2.90
2023-01-27T22:08:36.322Z,3.97
2023-01-27T22:11:09.117Z,3.05
2023-01-27T22:13:37.696Z,3.20
2023-01-27T22:16:05.044Z,3.00
2023-01-27T22:18:32.050Z,3.22
2023-01-27T22:21:02.128Z,3.50
2023-01-27T22:23:28.999Z,3.13
2023-01-27T22:25:55.797Z,2.67
2023-01-27T22:28:24.059Z,2.95
2023-01-27T22:30:51.327Z,3.25
2023-01-27T22:33:18.240Z,3.20
2023-01-27T22:35:44.976Z,2.70
2023-01-27T22:38:11.804Z,3.78
2023-01-27T22:40:38.784Z,3.60
2023-01-27T22:43:09.367Z,3.47
2023-01-27T22:45:39.833Z,2.30
2023-01-27T22:48:08.840Z,1.83
2023-01-27T22:50:36.547Z,2.13
2023-01-27T22:53:05.351Z,3.08
2023-01-27T22:55:32.619Z,3.03
2023-01-27T22:57:59.479Z,3.38
2023-01-27T23:00:26.271Z,2.97
2023-01-27T23:02:53.208Z,3.40
2023-01-27T23:05:20.081Z,2.55
2023-01-27T23:07:47.736Z,2.30
2023-01-27T23:10:15.316Z,2.15
2023-01-27T23:12:42.629Z,2.17
2023-01-27T23:15:09.739Z,2.38
2023-01-27T23:17:36.647Z,2.15
2023-01-27T23:20:04.004Z,2.13
2023-01-27T23:22:31.099Z,1.88
2023-01-27T23:24:57.824Z,2.17
2023-01-27T23:27:26.682Z,2.15
2023-01-27T23:29:53.513Z,2.40
2023-01-27T23:32:20.340Z,1.88
2023-01-27T23:34:48.146Z,1.75
2023-01-27T23:37:14.956Z,1.40
2023-01-27T23:39:48.753Z,1.75
2023-01-27T23:42:16.948Z,2.00
2023-01-27T23:44:43.763Z,1.98
2023-01-27T23:47:10.637Z,1.15
2023-01-27T23:49:37.383Z,1.50
2023-01-27T23:52:04.457Z,2.25
2023-01-27T23:54:31.859Z,2.10
2023-01-27T23:56:58.974Z,1.15
2023-01-27T23:59:26.064Z,1.25
